createdAt,value
2023-03-22T00:01:28.584Z,100627.78
2023-03-22T00:03:56.315Z,100629.56
2023-03-22T00:06:25.501Z,100630.97
2023-03-22T00:08:53.797Z,100638.19
2023-03-22T00:11:21.713Z,100623.69
2023-03-22T00:13:52.444Z,100618.09
2023-03-22T00:16:20.283Z,100622.09
2023-03-22T00:18:48.020Z,100623.53
2023-03-22T00:21:16.647Z,100619.59
2023-03-22T00:23:46.016Z,100622.28
2023-03-22T00:26:13.801Z,100610.25
2023-03-22T00:28:42.150Z,100611.69
2023-03-22T00:31:09.886Z,100617.31
2023-03-22T00:33:37.787Z,100615.28
2023-03-22T00:36:06.233Z,100611.56
2023-03-22T00:38:42.348Z,100611.75
2023-03-22T00:41:13.428Z,100603.47
2023-03-22T00:43:41.187Z,100596.97
2023-03-22T00:46:09.116Z,100593.00
2023-03-22T00:48:36.799Z,100597.66
2023-03-22T00:51:04.666Z,100602.41
2023-03-22T00:53:35.128Z,100601.22
2023-03-22T00:56:02.923Z,100596.81
2023-03-22T00:58:39.288Z,100595.25
2023-03-22T01:01:07.407Z,100605.28
2023-03-22T01:03:35.096Z,100605.81
2023-03-22T01:06:02.907Z,100610.06
2023-03-22T01:08:38.743Z,100609.47
2023-03-22T01:11:06.946Z,100594.06
2023-03-22T01:13:34.640Z,100596.72
2023-03-22T01:16:03.644Z,100593.94
2023-03-22T01:18:31.269Z,100586.66
2023-03-22T01:21:00.291Z,100592.16
2023-03-22T01:23:28.118Z,100591.56
2023-03-22T01:25:55.704Z,100582.69
2023-03-22T01:28:26.433Z,100584.19
2023-03-22T01:30:54.918Z,100577.47
2023-03-22T01:33:23.959Z,100581.09
2023-03-22T01:35:52.753Z,100577.28
2023-03-22T01:38:21.637Z,100568.72
2023-03-22T01:40:57.161Z,100563.41
2023-03-22T01:43:25.267Z,100561.22
2023-03-22T01:45:53.652Z,100557.31
2023-03-22T01:48:28.364Z,100552.50
2023-03-22T01:51:02.844Z,100547.91
2023-03-22T01:53:34.230Z,100557.34
2023-03-22T01:56:03.779Z,100548.63
2023-03-22T01:58:33.100Z,100552.28
2023-03-22T02:01:03.803Z,100548.75
2023-03-22T02:03:51.464Z,100546.34
2023-03-22T02:06:20.266Z,100547.47
2023-03-22T02:08:52.914Z,100540.59
2023-03-22T02:11:23.052Z,100545.13
2023-03-22T02:14:03.575Z,100543.28
2023-03-22T02:16:41.568Z,100540.03
2023-03-22T02:19:20.876Z,100534.75
2023-03-22T02:21:56.401Z,100535.31
2023-03-22T02:24:46.160Z,100534.84
2023-03-22T02:27:17.237Z,100538.63
2023-03-22T02:29:45.993Z,100541.88
2023-03-22T02:32:28.595Z,100533.34
2023-03-22T02:35:23.929Z,100530.28
2023-03-22T02:37:56.049Z,100545.44
2023-03-22T02:40:27.088Z,100543.25
2023-03-22T02:42:56.702Z,100535.50
2023-03-22T02:45:28.999Z,100529.94
2023-03-22T02:47:57.351Z,100532.31
2023-03-22T02:50:27.749Z,100531.78
2023-03-22T02:52:56.034Z,100538.06
2023-03-22T02:55:25.314Z,100527.88
2023-03-22T02:57:55.377Z,100523.44
2023-03-22T03:00:23.050Z,100527.44
2023-03-22T03:02:51.780Z,100531.25
2023-03-22T03:05:19.559Z,100524.47
2023-03-22T03:07:48.149Z,100523.13
2023-03-22T03:10:15.974Z,100523.66
2023-03-22T03:12:44.067Z,100525.97
2023-03-22T03:15:14.767Z,100520.50
2023-03-22T03:17:48.229Z,100520.81
2023-03-22T03:20:24.226Z,100524.41
2023-03-22T03:22:54.721Z,100528.03
2023-03-22T03:25:24.620Z,100526.84
2023-03-22T03:27:57.446Z,100528.41
2023-03-22T03:30:30.720Z,100534.38
2023-03-22T03:33:00.229Z,100531.31
2023-03-22T03:35:29.444Z,100532.34
2023-03-22T03:37:58.938Z,100533.31
2023-03-22T03:40:27.525Z,100534.06
2023-03-22T03:42:55.688Z,100535.50
2023-03-22T03:45:24.982Z,100521.81
2023-03-22T03:47:57.036Z,100523.16
2023-03-22T03:50:25.387Z,100523.75
2023-03-22T03:52:53.842Z,100527.22
2023-03-22T03:55:21.812Z,100524.59
2023-03-22T03:57:49.867Z,100517.91
2023-03-22T04:00:17.980Z,100519.34
2023-03-22T04:03:06.996Z,100520.34
2023-03-22T04:05:45.049Z,100516.47
2023-03-22T04:08:12.862Z,100517.53
2023-03-22T04:10:41.312Z,100514.28
2023-03-22T04:13:09.108Z,100511.97
2023-03-22T04:15:37.611Z,100525.84
2023-03-22T04:18:11.271Z,100521.88
2023-03-22T04:20:41.626Z,100526.56
2023-03-22T04:23:10.926Z,100530.78
2023-03-22T04:25:38.973Z,100521.25
2023-03-22T04:28:11.060Z,100521.78
2023-03-22T04:30:39.396Z,100523.91
2023-03-22T04:33:47.336Z,100536.03
2023-03-22T04:36:31.188Z,100522.09
2023-03-22T04:39:21.974Z,100530.38
2023-03-22T04:41:59.245Z,100512.25
2023-03-22T04:44:27.808Z,100519.22
2023-03-22T04:46:55.911Z,100519.41
2023-03-22T04:49:26.678Z,100517.66
2023-03-22T04:51:55.870Z,100514.44
2023-03-22T04:54:43.867Z,100519.31
2023-03-22T04:57:13.043Z,100514.81
2023-03-22T04:59:44.998Z,100516.59
2023-03-22T05:02:12.639Z,100519.00
2023-03-22T05:04:44.737Z,100504.75
2023-03-22T05:07:29.022Z,100496.69
2023-03-22T05:09:59.581Z,100494.81
2023-03-22T05:12:27.531Z,100492.22
2023-03-22T05:15:04.190Z,100492.50
2023-03-22T05:17:35.564Z,100483.47
2023-03-22T05:20:09.523Z,100490.34
2023-03-22T05:22:40.615Z,100488.06
2023-03-22T05:25:11.279Z,100487.69
2023-03-22T05:27:42.077Z,100491.84
2023-03-22T05:30:28.851Z,100496.81
2023-03-22T05:33:03.393Z,100491.53
2023-03-22T05:35:36.830Z,100495.91
2023-03-22T05:38:04.828Z,100497.19
2023-03-22T05:40:34.977Z,100495.63
2023-03-22T05:43:02.929Z,100496.31
2023-03-22T05:45:32.486Z,100490.69
2023-03-22T05:48:09.035Z,100493.78
2023-03-22T05:50:39.035Z,100479.94
2023-03-22T05:53:07.816Z,100484.88
2023-03-22T05:55:57.601Z,100487.53
2023-03-22T05:58:28.802Z,100479.53
2023-03-22T06:00:56.586Z,100481.69
2023-03-22T06:03:44.474Z,100476.81
2023-03-22T06:06:22.109Z,100477.09
2023-03-22T06:09:10.575Z,100483.47
2023-03-22T06:11:46.957Z,100480.31
2023-03-22T06:14:17.020Z,100477.34
2023-03-22T06:17:08.119Z,100473.09
2023-03-22T06:19:35.914Z,100473.84
2023-03-22T06:22:07.201Z,100473.63
2023-03-22T06:24:37.023Z,100465.53
2023-03-22T06:27:07.095Z,100476.50
2023-03-22T06:29:35.575Z,100484.31
2023-03-22T06:32:06.561Z,100477.41
2023-03-22T06:34:34.754Z,100468.63
2023-03-22T06:37:03.024Z,100472.88
2023-03-22T06:39:37.934Z,100476.41
2023-03-22T06:42:05.713Z,100480.06
2023-03-22T06:44:34.008Z,100483.59
2023-03-22T06:47:26.408Z,100491.28
2023-03-22T06:50:15.708Z,100486.56
2023-03-22T06:53:03.724Z,100493.63
2023-03-22T06:55:34.555Z,100493.06
2023-03-22T06:58:11.478Z,100491.81
2023-03-22T07:00:39.811Z,100495.38
2023-03-22T07:03:08.831Z,100491.69
2023-03-22T07:06:01.657Z,100488.97
2023-03-22T07:08:31.620Z,100489.81
2023-03-22T07:11:00.759Z,100489.78
2023-03-22T07:13:28.770Z,100492.19
2023-03-22T07:16:01.276Z,100495.25
2023-03-22T07:18:49.269Z,100498.31
2023-03-22T07:21:17.098Z,100487.28
2023-03-22T07:23:49.637Z,100492.88
2023-03-22T07:26:21.015Z,100492.78
2023-03-22T07:28:51.078Z,100487.78
2023-03-22T07:31:22.583Z,100483.19
2023-03-22T07:34:05.306Z,100484.19
2023-03-22T07:36:41.026Z,100487.50
2023-03-22T07:39:11.209Z,100481.47
2023-03-22T07:41:44.738Z,100487.28
2023-03-22T07:44:32.361Z,100478.97
2023-03-22T07:47:39.978Z,100481.53
2023-03-22T07:50:43.915Z,100478.44
2023-03-22T07:53:11.706Z,100468.53
2023-03-22T07:55:39.386Z,100473.28
2023-03-22T07:58:09.158Z,100467.44
2023-03-22T08:00:37.113Z,100465.38
2023-03-22T08:03:34.736Z,100468.31
2023-03-22T08:06:09.584Z,100466.69
2023-03-22T08:08:38.685Z,100462.09
2023-03-22T08:11:06.887Z,100466.34
2023-03-22T08:13:36.170Z,100464.44
2023-03-22T08:16:03.913Z,100462.06
2023-03-22T08:18:33.274Z,100456.97
2023-03-22T08:21:01.363Z,100459.81
2023-03-22T08:23:41.354Z,100463.16
2023-03-22T08:26:35.993Z,100446.78
2023-03-22T08:29:14.051Z,100449.03
2023-03-22T08:31:47.129Z,100451.31
2023-03-22T08:34:14.917Z,100446.25
2023-03-22T08:36:48.358Z,100445.03
2023-03-22T08:39:16.062Z,100439.44
2023-03-22T08:41:56.404Z,100442.22
2023-03-22T08:44:27.966Z,100447.13
2023-03-22T08:46:56.207Z,100443.66
2023-03-22T08:49:24.278Z,100443.41
2023-03-22T08:52:01.280Z,100439.56
2023-03-22T08:54:43.429Z,100435.03
2023-03-22T08:57:29.830Z,100433.66
2023-03-22T09:00:18.381Z,100431.38
2023-03-22T09:02:54.889Z,100420.19
2023-03-22T09:05:29.518Z,100418.97
2023-03-22T09:08:02.591Z,100413.00
2023-03-22T09:10:40.357Z,100405.69
2023-03-22T09:13:19.245Z,100404.88
2023-03-22T09:16:04.550Z,100397.25
2023-03-22T09:18:37.959Z,100388.47
2023-03-22T09:21:12.085Z,100386.97
2023-03-22T09:24:02.564Z,100390.69
2023-03-22T09:26:40.227Z,100383.44
2023-03-22T09:29:07.940Z,100391.28
2023-03-22T09:31:37.849Z,100383.66
2023-03-22T09:34:18.081Z,100380.75
2023-03-22T09:36:46.229Z,100385.66
2023-03-22T09:39:16.342Z,100375.94
2023-03-22T09:41:45.710Z,100387.91
2023-03-22T09:44:13.842Z,100392.59
2023-03-22T09:46:44.705Z,100387.28
2023-03-22T09:49:14.085Z,100394.81
2023-03-22T09:51:42.144Z,100381.44
2023-03-22T09:54:18.399Z,100389.00
2023-03-22T09:56:46.425Z,100382.91
2023-03-22T09:59:14.868Z,100384.78
2023-03-22T10:01:45.997Z,100383.25
2023-03-22T10:04:21.546Z,100380.88
2023-03-22T10:06:50.051Z,100385.94
2023-03-22T10:09:19.318Z,100379.38
2023-03-22T10:11:47.596Z,100383.28
2023-03-22T10:14:26.034Z,100368.31
2023-03-22T10:16:56.603Z,100364.44
2023-03-22T10:19:25.594Z,100364.69
2023-03-22T10:21:53.248Z,100364.09
2023-03-22T10:24:21.456Z,100363.59
2023-03-22T10:26:49.339Z,100365.41
2023-03-22T10:29:20.444Z,100359.97
2023-03-22T10:31:48.181Z,100353.97
2023-03-22T10:34:18.411Z,100353.22
2023-03-22T10:36:46.023Z,100355.03
2023-03-22T10:39:16.703Z,100347.03
2023-03-22T10:41:44.511Z,100337.81
2023-03-22T10:44:12.762Z,100327.34
2023-03-22T10:46:40.366Z,100331.06
2023-03-22T10:49:08.254Z,100327.28
2023-03-22T10:51:38.381Z,100325.38
2023-03-22T10:54:06.079Z,100318.56
2023-03-22T10:56:33.717Z,100313.97
2023-03-22T10:59:01.430Z,100311.47
2023-03-22T11:01:29.936Z,100316.69
2023-03-22T11:03:58.586Z,100304.50
2023-03-22T11:06:33.718Z,100315.38
2023-03-22T11:09:03.947Z,100306.47
2023-03-22T11:11:32.388Z,100306.66
2023-03-22T11:14:01.508Z,100308.94
2023-03-22T11:16:29.620Z,100297.25
2023-03-22T11:18:58.077Z,100293.72
2023-03-22T11:21:27.702Z,100294.91
2023-03-22T11:23:56.855Z,100289.97
2023-03-22T11:26:30.513Z,100288.81
2023-03-22T11:29:02.545Z,100287.03
2023-03-22T11:31:30.233Z,100284.63
2023-03-22T11:33:58.756Z,100304.44
2023-03-22T11:36:37.471Z,100297.44
2023-03-22T11:39:07.328Z,100284.50
2023-03-22T11:41:37.163Z,100293.44
2023-03-22T11:44:08.988Z,100295.44
2023-03-22T11:46:49.239Z,100293.94
2023-03-22T11:49:18.126Z,100286.47
2023-03-22T11:51:45.944Z,100294.59
2023-03-22T11:54:16.077Z,100285.97
2023-03-22T11:56:46.507Z,100277.78
2023-03-22T11:59:14.931Z,100271.88
2023-03-22T12:01:44.284Z,100273.31
2023-03-22T12:04:12.680Z,100262.59
2023-03-22T12:06:50.624Z,100262.94
2023-03-22T12:09:31.356Z,100266.94
2023-03-22T12:12:00.678Z,100248.63
2023-03-22T12:14:29.958Z,100252.94
2023-03-22T12:16:58.862Z,100257.78
2023-03-22T12:19:50.507Z,100253.28
2023-03-22T12:22:20.187Z,100249.41
2023-03-22T12:24:47.813Z,100245.50
2023-03-22T12:27:18.434Z,100236.00
2023-03-22T12:29:47.161Z,100241.75
2023-03-22T12:32:16.790Z,100234.47
2023-03-22T12:34:44.827Z,100235.19
2023-03-22T12:37:13.119Z,100216.00
2023-03-22T12:39:42.157Z,100211.78
2023-03-22T12:42:12.783Z,100223.31
2023-03-22T12:44:44.758Z,100201.28
2023-03-22T12:47:16.788Z,100205.91
2023-03-22T12:49:44.765Z,100210.91
2023-03-22T12:52:13.432Z,100201.00
2023-03-22T12:54:41.234Z,100206.97
2023-03-22T12:57:09.153Z,100207.28
2023-03-22T12:59:36.962Z,100188.38
2023-03-22T13:02:11.027Z,100192.91
2023-03-22T13:04:52.228Z,100211.41
2023-03-22T13:07:32.448Z,100196.97
2023-03-22T13:10:00.337Z,100190.97
2023-03-22T13:12:32.626Z,100190.81
2023-03-22T13:15:01.543Z,100193.19
2023-03-22T13:17:39.648Z,100191.72
2023-03-22T13:20:27.978Z,100197.31
2023-03-22T13:23:02.897Z,100191.25
2023-03-22T13:25:31.314Z,100194.41
2023-03-22T13:27:59.636Z,100189.88
2023-03-22T13:30:30.093Z,100183.47
2023-03-22T13:33:03.732Z,100189.16
2023-03-22T13:35:38.545Z,100180.03
2023-03-22T13:38:08.406Z,100181.91
2023-03-22T13:40:37.725Z,100174.47
2023-03-22T13:43:11.983Z,100189.94
2023-03-22T13:45:39.937Z,100163.22
2023-03-22T13:48:12.069Z,100159.63
2023-03-22T13:50:40.182Z,100180.59
2023-03-22T13:53:09.024Z,100164.88
2023-03-22T13:55:41.231Z,100165.97
2023-03-22T13:58:10.530Z,100176.84
2023-03-22T14:00:41.285Z,100162.47
2023-03-22T14:03:14.624Z,100154.63
2023-03-22T14:05:42.723Z,100153.44
2023-03-22T14:08:14.977Z,100158.97
2023-03-22T14:10:43.213Z,100157.94
2023-03-22T14:13:14.983Z,100160.22
2023-03-22T14:15:43.015Z,100148.66
2023-03-22T14:18:13.619Z,100157.50
2023-03-22T14:20:43.146Z,100147.50
